Aérodrome :
LOGIN :

S'inscrire | Disclaimer

   EN    FR    IT 

 










Légende :    VFR   VFR Marginal   IFR   IFR Intensif   IFR Très Intensif
Visi : 
Plafond : 
>= 8 km
>= 3000ft
5 à 8 km
1000 à 3000 ft
1500m à 5 km
500 à 1000 ft
800 à 1500m
200 à 500 ft
< 800m
< 200 ft
Symboles :   Orages  Brouillard  Fortes neiges  Fortes précipitations  Vent > 20 kt
SIGMETs :   Divers  Orages  Givrage  Turbulence  Onde Orograph.  Cendres Volcan.







- Altitude de l'aérodrome : 499 ft
- Code IATA : TLS
- Voir les cartes d'approche


LFBO - Toulouse / Blagnac

DERNIER METAR :
  • 262200Z AUTO 14010KT 110V170 9999 FEW011 19/13 Q1015 TEMPO 14015G25KT

METARs EXPIRÉS :
  • 262130Z AUTO 15008KT 130V190 CAVOK 20/12 Q1015 TEMPO 14015G25KT
  • 262100Z AUTO 14012KT CAVOK 20/12 Q1014 TEMPO 14015G25KT
  • 262030Z AUTO 13013KT 100V160 CAVOK 21/12 Q1014 TEMPO 14015G25KT
  • 262000Z AUTO 13012KT CAVOK 22/12 Q1013 TEMPO 14015G25KT
  • 261930Z AUTO 13012KT 100V160 CAVOK 22/11 Q1014 TEMPO 14015G25KT

TAF TAF LFBO
Valide du 26 à 18h jusqu'au 28 à 00h UTC


261700Z 2618/2724 14015KT CAVOK
TEMPO 2618/2624 14015G25KT
PROB30 2704/2706 BKN012
ATIS : +33 5 62 74 66 36
Pas de NOTAMs connus pour ce terrain.
3 SIGMETs publiés pour la FIR Bordeaux (LFBB) :
 
Orages noyés dans la masse
LFBB SIGMET 7 VALID 262100/270000 LFPW
LFBB BORDEAUX FIR/UIR EMBD TS OBS S OF N4445 AND W OF W00045 TOP FL400 MOV N 20KT NC=
Annulation du SIGMET 5 
LFBB SIGMET 6 VALID 262055/262300 LFPW
LFBB BORDEAUX FIR/UIR CNL SIGMET 5 261900/262300=
SIGMET 5  ANNULÉ :
Orages noyés dans la masse
LFBB SIGMET 5 VALID 261900/262300 LFPW
LFBB BORDEAUX FIR/UIR EMBD TS FCST WI N4300 W00115 - N4300 W00145 - N4400 W00145 - N4400 W00115 TOP FL400 MOV NE 20KT NC=



MET'MAP, la Météo Aéronautique d'un coup d'oeil ! - Copyright ORBIFLY Décembre 2007 - Disclaimer

ORBIFLY MET'MAP TEAM :

Programmation & Développement : Alexandra Zaïnal
Conception & Développement : Baudouin d'Aumeries
Co-Programmation & Développement : Marc-Olivier Méhu
Soutien technique & logistique : Manuel Goepfert

Contact : metmap@orbifly.com




SOURCES & CREDITS :

   NOAA